sensor_id;sensor_type;location;lat;lon;timestamp;temperature;humidity
13589;DHT22;6865;52.552;13.434;2024-01-25T00:00:42;8.30;1.00
13589;DHT22;6865;52.552;13.434;2024-01-25T00:03:09;8.30;1.00
13589;DHT22;6865;52.552;13.434;2024-01-25T00:05:35;8.20;1.00
13589;DHT22;6865;52.552;13.434;2024-01-25T00:08:02;8.20;1.00
13589;DHT22;6865;52.552;13.434;2024-01-25T00:10:29;8.20;1.00
13589;DHT22;6865;52.552;13.434;2024-01-25T00:12:56;8.20;1.00
13589;DHT22;6865;52.552;13.434;2024-01-25T00:15:22;8.20;1.00
13589;DHT22;6865;52.552;13.434;2024-01-25T00:17:49;8.10;1.00
13589;DHT22;6865;52.552;13.434;2024-01-25T00:20:16;7.90;1.00
13589;DHT22;6865;52.552;13.434;2024-01-25T00:22:43;8.20;1.00
13589;DHT22;6865;52.552;13.434;2024-01-25T00:25:10;8.10;1.00
13589;DHT22;6865;52.552;13.434;2024-01-25T00:27:37;8.10;1.00
13589;DHT22;6865;52.552;13.434;2024-01-25T00:30:04;8.10;1.00
13589;DHT22;6865;52.552;13.434;2024-01-25T00:32:31;8.10;1.00
13589;DHT22;6865;52.552;13.434;2024-01-25T00:34:58;8.10;1.00
13589;DHT22;6865;52.552;13.434;2024-01-25T00:37:25;8.10;1.00
13589;DHT22;6865;52.552;13.434;2024-01-25T00:39:52;8.10;1.00
13589;DHT22;6865;52.552;13.434;2024-01-25T00:42:21;8.10;1.00
13589;DHT22;6865;52.552;13.434;2024-01-25T00:44:49;8.10;1.00
13589;DHT22;6865;52.552;13.434;2024-01-25T00:47:16;8.10;1.00
13589;DHT22;6865;52.552;13.434;2024-01-25T00:49:43;8.10;1.00
13589;DHT22;6865;52.552;13.434;2024-01-25T00:52:10;8.00;1.00
13589;DHT22;6865;52.552;13.434;2024-01-25T00:54:37;8.00;1.00
13589;DHT22;6865;52.552;13.434;2024-01-25T00:57:04;8.00;1.00
13589;DHT22;6865;52.552;13.434;2024-01-25T00:59:31;8.00;1.00
13589;DHT22;6865;52.552;13.434;2024-01-25T01:01:58;8.10;1.00
13589;DHT22;6865;52.552;13.434;2024-01-25T01:04:32;8.00;1.00
13589;DHT22;6865;52.552;13.434;2024-01-25T01:07:14;8.00;1.00
13589;DHT22;6865;52.552;13.434;2024-01-25T01:09:41;8.10;1.00
13589;DHT22;6865;52.552;13.434;2024-01-25T01:12:07;8.00;1.00
13589;DHT22;6865;52.552;13.434;2024-01-25T01:14:34;8.00;1.00
13589;DHT22;6865;52.552;13.434;2024-01-25T01:17:01;8.00;1.00
13589;DHT22;6865;52.552;13.434;2024-01-25T01:19:27;8.00;1.00
13589;DHT22;6865;52.552;13.434;2024-01-25T01:21:54;8.00;1.00
13589;DHT22;6865;52.552;13.434;2024-01-25T01:24:21;8.00;1.00
13589;DHT22;6865;52.552;13.434;2024-01-25T01:26:48;8.00;1.00
13589;DHT22;6865;52.552;13.434;2024-01-25T01:29:16;7.60;1.00
13589;DHT22;6865;52.552;13.434;2024-01-25T01:31:42;7.70;1.00
13589;DHT22;6865;52.552;13.434;2024-01-25T01:34:09;8.00;1.00
13589;DHT22;6865;52.552;13.434;2024-01-25T01:36:39;8.00;1.00
13589;DHT22;6865;52.552;13.434;2024-01-25T01:39:06;8.00;1.00
13589;DHT22;6865;52.552;13.434;2024-01-25T01:41:32;8.00;1.00
13589;DHT22;6865;52.552;13.434;2024-01-25T01:43:59;8.00;1.00
13589;DHT22;6865;52.552;13.434;2024-01-25T01:46:34;8.00;1.00
13589;DHT22;6865;52.552;13.434;2024-01-25T01:49:04;8.00;1.00
13589;DHT22;6865;52.552;13.434;2024-01-25T01:51:32;8.00;1.00
13589;DHT22;6865;52.552;13.434;2024-01-25T01:54:03;8.00;1.00
13589;DHT22;6865;52.552;13.434;2024-01-25T01:56:29;7.90;1.00
13589;DHT22;6865;52.552;13.434;2024-01-25T01:59:00;7.90;1.00
13589;DHT22;6865;52.552;13.434;2024-01-25T02:01:28;8.00;1.00
13589;DHT22;6865;52.552;13.434;2024-01-25T02:03:55;7.90;1.00
13589;DHT22;6865;52.552;13.434;2024-01-25T02:06:26;7.90;1.00
13589;DHT22;6865;52.552;13.434;2024-01-25T02:08:53;7.90;1.00
13589;DHT22;6865;52.552;13.434;2024-01-25T02:11:20;7.90;1.00
13589;DHT22;6865;52.552;13.434;2024-01-25T02:13:47;7.90;1.00
13589;DHT22;6865;52.552;13.434;2024-01-25T02:16:16;8.00;1.00
13589;DHT22;6865;52.552;13.434;2024-01-25T02:18:44;7.90;1.00
13589;DHT22;6865;52.552;13.434;2024-01-25T02:21:11;7.80;1.00
13589;DHT22;6865;52.552;13.434;2024-01-25T02:23:38;7.90;1.00
13589;DHT22;6865;52.552;13.434;2024-01-25T02:26:05;7.90;1.00
13589;DHT22;6865;52.552;13.434;2024-01-25T02:28:31;7.70;1.00
13589;DHT22;6865;52.552;13.434;2024-01-25T02:31:02;7.80;1.00
13589;DHT22;6865;52.552;13.434;2024-01-25T02:33:29;7.80;1.00
13589;DHT22;6865;52.552;13.434;2024-01-25T02:35:57;7.80;1.00
13589;DHT22;6865;52.552;13.434;2024-01-25T02:38:24;7.80;1.00
13589;DHT22;6865;52.552;13.434;2024-01-25T02:40:51;7.80;1.00
13589;DHT22;6865;52.552;13.434;2024-01-25T02:43:17;7.80;1.00
13589;DHT22;6865;52.552;13.434;2024-01-25T02:45:44;7.70;1.00
13589;DHT22;6865;52.552;13.434;2024-01-25T02:48:11;7.80;1.00
13589;DHT22;6865;52.552;13.434;2024-01-25T02:50:38;7.80;1.00
13589;DHT22;6865;52.552;13.434;2024-01-25T02:53:05;7.70;1.00
13589;DHT22;6865;52.552;13.434;2024-01-25T02:55:32;7.80;1.00
13589;DHT22;6865;52.552;13.434;2024-01-25T02:57:58;7.80;1.00
13589;DHT22;6865;52.552;13.434;2024-01-25T03:00:25;7.60;1.00
13589;DHT22;6865;52.552;13.434;2024-01-25T03:02:52;7.80;1.00
13589;DHT22;6865;52.552;13.434;2024-01-25T03:05:18;7.80;1.00
13589;DHT22;6865;52.552;13.434;2024-01-25T03:07:45;7.70;1.00
13589;DHT22;6865;52.552;13.434;2024-01-25T03:10:12;7.80;1.00
13589;DHT22;6865;52.552;13.434;2024-01-25T03:12:40;7.70;1.00
13589;DHT22;6865;52.552;13.434;2024-01-25T03:15:08;7.70;1.00
13589;DHT22;6865;52.552;13.434;2024-01-25T03:17:35;7.70;1.00
13589;DHT22;6865;52.552;13.434;2024-01-25T03:20:02;7.80;1.00
13589;DHT22;6865;52.552;13.434;2024-01-25T03:22:29;7.80;1.00
13589;DHT22;6865;52.552;13.434;2024-01-25T03:24:56;7.80;1.00
13589;DHT22;6865;52.552;13.434;2024-01-25T03:27:22;7.80;1.00
13589;DHT22;6865;52.552;13.434;2024-01-25T03:29:49;7.80;1.00
13589;DHT22;6865;52.552;13.434;2024-01-25T03:32:16;7.80;1.00
13589;DHT22;6865;52.552;13.434;2024-01-25T03:34:42;7.70;1.00
13589;DHT22;6865;52.552;13.434;2024-01-25T03:37:10;7.80;1.00
13589;DHT22;6865;52.552;13.434;2024-01-25T03:39:37;7.80;1.00
13589;DHT22;6865;52.552;13.434;2024-01-25T03:42:04;7.70;1.00
13589;DHT22;6865;52.552;13.434;2024-01-25T03:44:30;7.70;1.00
13589;DHT22;6865;52.552;13.434;2024-01-25T03:46:57;7.70;1.00
13589;DHT22;6865;52.552;13.434;2024-01-25T03:49:24;7.70;1.00
13589;DHT22;6865;52.552;13.434;2024-01-25T03:51:51;7.70;1.00
13589;DHT22;6865;52.552;13.434;2024-01-25T03:54:17;7.70;1.00
13589;DHT22;6865;52.552;13.434;2024-01-25T03:56:44;7.70;1.00
13589;DHT22;6865;52.552;13.434;2024-01-25T03:59:11;7.70;1.00
13589;DHT22;6865;52.552;13.434;2024-01-25T04:01:46;7.60;1.00
13589;DHT22;6865;52.552;13.434;2024-01-25T04:04:15;7.60;1.00
13589;DHT22;6865;52.552;13.434;2024-01-25T04:06:42;7.60;1.00
13589;DHT22;6865;52.552;13.434;2024-01-25T04:09:09;7.70;1.00
13589;DHT22;6865;52.552;13.434;2024-01-25T04:11:37;7.60;1.00
13589;DHT22;6865;52.552;13.434;2024-01-25T04:14:04;7.60;1.00
13589;DHT22;6865;52.552;13.434;2024-01-25T04:16:32;7.60;1.00
13589;DHT22;6865;52.552;13.434;2024-01-25T04:18:59;7.60;1.00
13589;DHT22;6865;52.552;13.434;2024-01-25T04:21:27;7.60;1.00
13589;DHT22;6865;52.552;13.434;2024-01-25T04:23:54;7.60;1.00
13589;DHT22;6865;52.552;13.434;2024-01-25T04:26:20;7.60;1.00
13589;DHT22;6865;52.552;13.434;2024-01-25T04:28:47;7.60;1.00
13589;DHT22;6865;52.552;13.434;2024-01-25T04:31:14;7.60;1.00
13589;DHT22;6865;52.552;13.434;2024-01-25T04:33:41;7.60;1.00
13589;DHT22;6865;52.552;13.434;2024-01-25T04:36:14;7.60;1.00
13589;DHT22;6865;52.552;13.434;2024-01-25T04:38:40;7.60;1.00
13589;DHT22;6865;52.552;13.434;2024-01-25T04:41:07;7.60;1.00
13589;DHT22;6865;52.552;13.434;2024-01-25T04:43:37;7.60;1.00
13589;DHT22;6865;52.552;13.434;2024-01-25T04:46:04;7.60;1.00
13589;DHT22;6865;52.552;13.434;2024-01-25T04:48:31;7.60;1.00
13589;DHT22;6865;52.552;13.434;2024-01-25T04:50:59;7.60;1.00
13589;DHT22;6865;52.552;13.434;2024-01-25T04:53:26;7.60;1.00
13589;DHT22;6865;52.552;13.434;2024-01-25T04:55:56;7.60;1.00
13589;DHT22;6865;52.552;13.434;2024-01-25T04:58:23;7.60;1.00
13589;DHT22;6865;52.552;13.434;2024-01-25T05:00:50;7.60;1.00
13589;DHT22;6865;52.552;13.434;2024-01-25T05:03:19;7.60;1.00
13589;DHT22;6865;52.552;13.434;2024-01-25T05:05:47;7.60;1.00
13589;DHT22;6865;52.552;13.434;2024-01-25T05:08:13;7.60;1.00
13589;DHT22;6865;52.552;13.434;2024-01-25T05:10:41;7.40;1.00
13589;DHT22;6865;52.552;13.434;2024-01-25T05:13:08;7.50;1.00
13589;DHT22;6865;52.552;13.434;2024-01-25T05:15:36;7.50;1.00
13589;DHT22;6865;52.552;13.434;2024-01-25T05:18:03;7.50;1.00
13589;DHT22;6865;52.552;13.434;2024-01-25T05:20:30;7.60;1.00
13589;DHT22;6865;52.552;13.434;2024-01-25T05:23:02;7.50;1.00
13589;DHT22;6865;52.552;13.434;2024-01-25T05:25:30;7.60;1.00
13589;DHT22;6865;52.552;13.434;2024-01-25T05:27:57;7.50;1.00
13589;DHT22;6865;52.552;13.434;2024-01-25T05:30:25;7.50;1.00
13589;DHT22;6865;52.552;13.434;2024-01-25T05:32:51;7.50;1.00
13589;DHT22;6865;52.552;13.434;2024-01-25T05:35:20;7.50;1.00
13589;DHT22;6865;52.552;13.434;2024-01-25T05:37:47;7.50;1.00
13589;DHT22;6865;52.552;13.434;2024-01-25T05:40:14;7.50;1.00
13589;DHT22;6865;52.552;13.434;2024-01-25T05:42:41;7.40;1.00
13589;DHT22;6865;52.552;13.434;2024-01-25T05:45:08;7.50;1.00
13589;DHT22;6865;52.552;13.434;2024-01-25T05:47:35;7.50;1.00
13589;DHT22;6865;52.552;13.434;2024-01-25T05:50:03;7.50;1.00
13589;DHT22;6865;52.552;13.434;2024-01-25T05:52:30;7.50;1.00
13589;DHT22;6865;52.552;13.434;2024-01-25T05:54:57;7.50;1.00
13589;DHT22;6865;52.552;13.434;2024-01-25T05:57:27;7.50;1.00
13589;DHT22;6865;52.552;13.434;2024-01-25T05:59:54;7.60;1.00
13589;DHT22;6865;52.552;13.434;2024-01-25T06:02:21;7.60;1.00
13589;DHT22;6865;52.552;13.434;2024-01-25T06:04:48;7.50;1.00
13589;DHT22;6865;52.552;13.434;2024-01-25T06:07:16;7.50;1.00
13589;DHT22;6865;52.552;13.434;2024-01-25T06:09:43;7.50;1.00
13589;DHT22;6865;52.552;13.434;2024-01-25T06:12:10;7.50;1.00
13589;DHT22;6865;52.552;13.434;2024-01-25T06:14:36;7.50;1.00
13589;DHT22;6865;52.552;13.434;2024-01-25T06:17:03;7.50;1.00
13589;DHT22;6865;52.552;13.434;2024-01-25T06:19:30;7.50;1.00
13589;DHT22;6865;52.552;13.434;2024-01-25T06:21:57;7.50;1.00
13589;DHT22;6865;52.552;13.434;2024-01-25T06:24:24;7.50;1.00
13589;DHT22;6865;52.552;13.434;2024-01-25T06:26:50;7.50;1.00
13589;DHT22;6865;52.552;13.434;2024-01-25T06:29:17;7.50;1.00
13589;DHT22;6865;52.552;13.434;2024-01-25T06:31:44;7.50;1.00
13589;DHT22;6865;52.552;13.434;2024-01-25T06:34:11;7.50;1.00
13589;DHT22;6865;52.552;13.434;2024-01-25T06:36:38;7.50;1.00
13589;DHT22;6865;52.552;13.434;2024-01-25T06:39:05;7.50;1.00
13589;DHT22;6865;52.552;13.434;2024-01-25T06:41:32;7.50;1.00
13589;DHT22;6865;52.552;13.434;2024-01-25T06:43:59;7.50;1.00
13589;DHT22;6865;52.552;13.434;2024-01-25T06:46:26;7.40;1.00
13589;DHT22;6865;52.552;13.434;2024-01-25T06:48:53;7.40;1.00
13589;DHT22;6865;52.552;13.434;2024-01-25T06:51:20;7.40;1.00
13589;DHT22;6865;52.552;13.434;2024-01-25T06:53:47;7.50;1.00
13589;DHT22;6865;52.552;13.434;2024-01-25T06:56:13;7.40;1.00
13589;DHT22;6865;52.552;13.434;2024-01-25T06:58:40;7.50;1.00
13589;DHT22;6865;52.552;13.434;2024-01-25T07:01:07;7.50;1.00
13589;DHT22;6865;52.552;13.434;2024-01-25T07:03:34;7.50;1.00
13589;DHT22;6865;52.552;13.434;2024-01-25T07:06:01;7.40;1.00
13589;DHT22;6865;52.552;13.434;2024-01-25T07:08:29;7.50;1.00
13589;DHT22;6865;52.552;13.434;2024-01-25T07:10:55;7.50;1.00
13589;DHT22;6865;52.552;13.434;2024-01-25T07:13:22;7.50;1.00
13589;DHT22;6865;52.552;13.434;2024-01-25T07:15:49;7.50;1.00
13589;DHT22;6865;52.552;13.434;2024-01-25T07:18:17;7.60;1.00
13589;DHT22;6865;52.552;13.434;2024-01-25T07:20:44;7.60;1.00
13589;DHT22;6865;52.552;13.434;2024-01-25T07:23:12;7.50;1.00
13589;DHT22;6865;52.552;13.434;2024-01-25T07:25:39;7.60;1.00
13589;DHT22;6865;52.552;13.434;2024-01-25T07:28:06;7.60;1.00
13589;DHT22;6865;52.552;13.434;2024-01-25T07:30:33;7.60;1.00
13589;DHT22;6865;52.552;13.434;2024-01-25T07:33:00;7.60;1.00
13589;DHT22;6865;52.552;13.434;2024-01-25T07:35:28;7.60;1.00
13589;DHT22;6865;52.552;13.434;2024-01-25T07:37:55;7.60;1.00
13589;DHT22;6865;52.552;13.434;2024-01-25T07:40:22;7.60;1.00
13589;DHT22;6865;52.552;13.434;2024-01-25T07:42:50;7.60;1.00
13589;DHT22;6865;52.552;13.434;2024-01-25T07:45:17;7.60;1.00
13589;DHT22;6865;52.552;13.434;2024-01-25T07:47:44;7.50;1.00
13589;DHT22;6865;52.552;13.434;2024-01-25T07:50:11;7.60;1.00
13589;DHT22;6865;52.552;13.434;2024-01-25T07:52:38;7.60;1.00
13589;DHT22;6865;52.552;13.434;2024-01-25T07:55:05;7.50;1.00
13589;DHT22;6865;52.552;13.434;2024-01-25T07:57:32;7.60;1.00
13589;DHT22;6865;52.552;13.434;2024-01-25T07:59:59;7.60;1.00
13589;DHT22;6865;52.552;13.434;2024-01-25T08:02:26;7.50;1.00
13589;DHT22;6865;52.552;13.434;2024-01-25T08:04:52;7.60;1.00
13589;DHT22;6865;52.552;13.434;2024-01-25T08:07:20;7.50;1.00
13589;DHT22;6865;52.552;13.434;2024-01-25T08:09:47;7.60;1.00
13589;DHT22;6865;52.552;13.434;2024-01-25T08:12:17;7.60;1.00
13589;DHT22;6865;52.552;13.434;2024-01-25T08:14:44;7.50;1.00
13589;DHT22;6865;52.552;13.434;2024-01-25T08:17:11;7.50;1.00
13589;DHT22;6865;52.552;13.434;2024-01-25T08:19:38;7.90;1.00
13589;DHT22;6865;52.552;13.434;2024-01-25T08:22:06;7.60;1.00
13589;DHT22;6865;52.552;13.434;2024-01-25T08:24:33;7.70;1.00
13589;DHT22;6865;52.552;13.434;2024-01-25T08:26:59;7.60;1.00
13589;DHT22;6865;52.552;13.434;2024-01-25T08:29:26;7.90;1.00
13589;DHT22;6865;52.552;13.434;2024-01-25T08:31:53;7.60;1.00
13589;DHT22;6865;52.552;13.434;2024-01-25T08:34:20;7.60;1.00
13589;DHT22;6865;52.552;13.434;2024-01-25T08:36:48;7.30;1.00
13589;DHT22;6865;52.552;13.434;2024-01-25T08:39:14;7.60;1.00
13589;DHT22;6865;52.552;13.434;2024-01-25T08:41:41;7.60;1.00
13589;DHT22;6865;52.552;13.434;2024-01-25T08:44:08;7.70;1.00
13589;DHT22;6865;52.552;13.434;2024-01-25T08:46:35;7.60;1.00
13589;DHT22;6865;52.552;13.434;2024-01-25T08:49:02;7.20;1.00
13589;DHT22;6865;52.552;13.434;2024-01-25T08:51:35;7.70;1.00
13589;DHT22;6865;52.552;13.434;2024-01-25T08:54:02;7.70;1.00
13589;DHT22;6865;52.552;13.434;2024-01-25T08:56:30;7.70;1.00
13589;DHT22;6865;52.552;13.434;2024-01-25T08:58:56;7.70;1.00
13589;DHT22;6865;52.552;13.434;2024-01-25T09:01:23;7.70;1.00
13589;DHT22;6865;52.552;13.434;2024-01-25T09:03:50;7.70;1.00
13589;DHT22;6865;52.552;13.434;2024-01-25T09:06:17;7.70;1.00
13589;DHT22;6865;52.552;13.434;2024-01-25T09:08:45;7.70;1.00
13589;DHT22;6865;52.552;13.434;2024-01-25T09:11:11;7.60;1.00
13589;DHT22;6865;52.552;13.434;2024-01-25T09:13:38;7.80;1.00
13589;DHT22;6865;52.552;13.434;2024-01-25T09:16:12;7.80;1.00
13589;DHT22;6865;52.552;13.434;2024-01-25T09:18:39;7.80;1.00
13589;DHT22;6865;52.552;13.434;2024-01-25T09:21:06;7.80;1.00
13589;DHT22;6865;52.552;13.434;2024-01-25T09:23:33;7.90;1.00
13589;DHT22;6865;52.552;13.434;2024-01-25T09:25:59;7.80;1.00
13589;DHT22;6865;52.552;13.434;2024-01-25T09:28:26;7.60;1.00
13589;DHT22;6865;52.552;13.434;2024-01-25T09:30:53;7.80;1.00
13589;DHT22;6865;52.552;13.434;2024-01-25T09:33:20;7.80;1.00
13589;DHT22;6865;52.552;13.434;2024-01-25T09:35:47;7.70;1.00
13589;DHT22;6865;52.552;13.434;2024-01-25T09:38:15;7.80;1.00
13589;DHT22;6865;52.552;13.434;2024-01-25T09:40:42;7.70;1.00
13589;DHT22;6865;52.552;13.434;2024-01-25T09:43:09;7.70;1.00
13589;DHT22;6865;52.552;13.434;2024-01-25T09:45:36;7.70;1.00
13589;DHT22;6865;52.552;13.434;2024-01-25T09:48:03;8.10;1.00
13589;DHT22;6865;52.552;13.434;2024-01-25T09:50:32;7.70;1.00
13589;DHT22;6865;52.552;13.434;2024-01-25T09:53:00;7.80;1.00
13589;DHT22;6865;52.552;13.434;2024-01-25T09:55:29;7.70;1.00
13589;DHT22;6865;52.552;13.434;2024-01-25T09:57:57;7.60;1.00
13589;DHT22;6865;52.552;13.434;2024-01-25T10:00:24;7.70;1.00
13589;DHT22;6865;52.552;13.434;2024-01-25T10:02:52;7.70;1.00
13589;DHT22;6865;52.552;13.434;2024-01-25T10:05:19;7.70;1.00
13589;DHT22;6865;52.552;13.434;2024-01-25T10:07:46;7.80;1.00
13589;DHT22;6865;52.552;13.434;2024-01-25T10:10:13;7.70;1.00
13589;DHT22;6865;52.552;13.434;2024-01-25T10:12:41;7.70;1.00
13589;DHT22;6865;52.552;13.434;2024-01-25T10:15:09;7.70;1.00
13589;DHT22;6865;52.552;13.434;2024-01-25T10:17:36;7.70;1.00
13589;DHT22;6865;52.552;13.434;2024-01-25T10:20:06;7.70;1.00
13589;DHT22;6865;52.552;13.434;2024-01-25T10:22:38;7.70;1.00
13589;DHT22;6865;52.552;13.434;2024-01-25T10:25:12;7.70;1.00
13589;DHT22;6865;52.552;13.434;2024-01-25T10:27:40;7.70;1.00
13589;DHT22;6865;52.552;13.434;2024-01-25T10:30:07;7.80;1.00
13589;DHT22;6865;52.552;13.434;2024-01-25T10:32:36;7.90;1.00
13589;DHT22;6865;52.552;13.434;2024-01-25T10:35:04;7.90;1.00
13589;DHT22;6865;52.552;13.434;2024-01-25T10:37:32;7.90;99.90
13589;DHT22;6865;52.552;13.434;2024-01-25T10:39:59;8.00;1.00
13589;DHT22;6865;52.552;13.434;2024-01-25T10:42:26;8.00;1.00
13589;DHT22;6865;52.552;13.434;2024-01-25T10:44:53;8.10;99.90
13589;DHT22;6865;52.552;13.434;2024-01-25T10:47:20;8.10;99.90
13589;DHT22;6865;52.552;13.434;2024-01-25T10:49:48;8.10;1.00
13589;DHT22;6865;52.552;13.434;2024-01-25T10:52:16;8.10;1.00
13589;DHT22;6865;52.552;13.434;2024-01-25T10:54:43;8.10;99.90
13589;DHT22;6865;52.552;13.434;2024-01-25T10:57:10;8.20;99.90
13589;DHT22;6865;52.552;13.434;2024-01-25T10:59:36;8.10;99.90
13589;DHT22;6865;52.552;13.434;2024-01-25T11:02:03;7.60;99.90
13589;DHT22;6865;52.552;13.434;2024-01-25T11:04:31;8.20;99.90
13589;DHT22;6865;52.552;13.434;2024-01-25T11:07:08;8.10;99.90
13589;DHT22;6865;52.552;13.434;2024-01-25T11:09:36;8.30;95.70
13589;DHT22;6865;52.552;13.434;2024-01-25T11:12:12;8.30;99.90
13589;DHT22;6865;52.552;13.434;2024-01-25T11:14:40;8.30;68.10
13589;DHT22;6865;52.552;13.434;2024-01-25T11:17:20;8.30;1.00
13589;DHT22;6865;52.552;13.434;2024-01-25T11:19:48;8.30;1.00
13589;DHT22;6865;52.552;13.434;2024-01-25T11:22:16;8.30;1.00
13589;DHT22;6865;52.552;13.434;2024-01-25T11:24:43;8.30;1.00
13589;DHT22;6865;52.552;13.434;2024-01-25T11:27:10;8.40;99.90
13589;DHT22;6865;52.552;13.434;2024-01-25T11:29:38;8.40;1.00
13589;DHT22;6865;52.552;13.434;2024-01-25T11:32:09;8.30;99.90
13589;DHT22;6865;52.552;13.434;2024-01-25T11:34:36;8.30;1.00
13589;DHT22;6865;52.552;13.434;2024-01-25T11:37:03;8.40;1.00
13589;DHT22;6865;52.552;13.434;2024-01-25T11:39:30;8.40;1.00
13589;DHT22;6865;52.552;13.434;2024-01-25T11:41:58;8.40;1.00
13589;DHT22;6865;52.552;13.434;2024-01-25T11:44:25;8.40;1.00
13589;DHT22;6865;52.552;13.434;2024-01-25T11:46:54;8.50;1.00
13589;DHT22;6865;52.552;13.434;2024-01-25T11:49:24;8.50;99.90
13589;DHT22;6865;52.552;13.434;2024-01-25T11:51:51;8.60;90.10
13589;DHT22;6865;52.552;13.434;2024-01-25T11:54:18;8.60;99.90
13589;DHT22;6865;52.552;13.434;2024-01-25T11:56:45;8.60;90.70
13589;DHT22;6865;52.552;13.434;2024-01-25T11:59:12;8.60;99.90
13589;DHT22;6865;52.552;13.434;2024-01-25T12:01:39;8.70;99.90
13589;DHT22;6865;52.552;13.434;2024-01-25T12:04:07;8.70;99.90
13589;DHT22;6865;52.552;13.434;2024-01-25T12:06:34;8.60;99.90
13589;DHT22;6865;52.552;13.434;2024-01-25T12:09:11;8.60;1.00
13589;DHT22;6865;52.552;13.434;2024-01-25T12:11:40;8.50;99.90
13589;DHT22;6865;52.552;13.434;2024-01-25T12:14:08;8.50;1.00
13589;DHT22;6865;52.552;13.434;2024-01-25T12:16:35;8.50;1.00
13589;DHT22;6865;52.552;13.434;2024-01-25T12:19:04;8.60;57.40
13589;DHT22;6865;52.552;13.434;2024-01-25T12:21:35;9.60;1.00
13589;DHT22;6865;52.552;13.434;2024-01-25T12:24:03;8.70;99.90
13589;DHT22;6865;52.552;13.434;2024-01-25T12:26:35;8.60;1.00
13589;DHT22;6865;52.552;13.434;2024-01-25T12:29:02;8.40;1.00
13589;DHT22;6865;52.552;13.434;2024-01-25T12:31:29;8.40;99.90
13589;DHT22;6865;52.552;13.434;2024-01-25T12:33:57;8.40;1.00
13589;DHT22;6865;52.552;13.434;2024-01-25T12:36:25;8.50;1.00
13589;DHT22;6865;52.552;13.434;2024-01-25T12:38:52;8.60;1.00
13589;DHT22;6865;52.552;13.434;2024-01-25T12:41:18;8.70;99.90
13589;DHT22;6865;52.552;13.434;2024-01-25T12:43:45;8.70;4.50
13589;DHT22;6865;52.552;13.434;2024-01-25T12:46:12;8.80;1.00
13589;DHT22;6865;52.552;13.434;2024-01-25T12:48:52;8.90;1.00
13589;DHT22;6865;52.552;13.434;2024-01-25T12:51:22;8.90;99.90
13589;DHT22;6865;52.552;13.434;2024-01-25T12:53:49;8.70;99.90
13589;DHT22;6865;52.552;13.434;2024-01-25T12:56:17;8.60;99.90
13589;DHT22;6865;52.552;13.434;2024-01-25T12:58:44;8.50;99.90
13589;DHT22;6865;52.552;13.434;2024-01-25T13:01:10;8.60;1.00
13589;DHT22;6865;52.552;13.434;2024-01-25T13:03:42;8.60;99.90
13589;DHT22;6865;52.552;13.434;2024-01-25T13:06:09;8.60;99.90
13589;DHT22;6865;52.552;13.434;2024-01-25T13:08:35;8.50;99.90
13589;DHT22;6865;52.552;13.434;2024-01-25T13:11:02;8.60;99.90
13589;DHT22;6865;52.552;13.434;2024-01-25T13:13:29;8.70;99.90
13589;DHT22;6865;52.552;13.434;2024-01-25T13:15:56;8.70;99.90
13589;DHT22;6865;52.552;13.434;2024-01-25T13:18:24;8.70;1.00
13589;DHT22;6865;52.552;13.434;2024-01-25T13:20:51;8.60;1.00
13589;DHT22;6865;52.552;13.434;2024-01-25T13:23:18;8.60;1.00
13589;DHT22;6865;52.552;13.434;2024-01-25T13:25:44;8.60;1.00
13589;DHT22;6865;52.552;13.434;2024-01-25T13:28:11;8.70;1.00
13589;DHT22;6865;52.552;13.434;2024-01-25T13:30:38;8.60;99.90
13589;DHT22;6865;52.552;13.434;2024-01-25T13:33:05;8.70;99.90
13589;DHT22;6865;52.552;13.434;2024-01-25T13:35:31;8.70;99.90
13589;DHT22;6865;52.552;13.434;2024-01-25T13:37:58;8.80;1.00
13589;DHT22;6865;52.552;13.434;2024-01-25T13:40:28;8.90;99.90
13589;DHT22;6865;52.552;13.434;2024-01-25T13:42:54;9.00;1.00
13589;DHT22;6865;52.552;13.434;2024-01-25T13:45:21;8.90;1.00
13589;DHT22;6865;52.552;13.434;2024-01-25T13:47:48;8.90;1.00
13589;DHT22;6865;52.552;13.434;2024-01-25T13:50:15;8.80;99.90
13589;DHT22;6865;52.552;13.434;2024-01-25T13:52:42;8.80;99.90
13589;DHT22;6865;52.552;13.434;2024-01-25T13:55:08;8.60;99.90
13589;DHT22;6865;52.552;13.434;2024-01-25T13:57:35;8.70;99.90
13589;DHT22;6865;52.552;13.434;2024-01-25T14:00:02;8.70;99.90
13589;DHT22;6865;52.552;13.434;2024-01-25T14:02:31;8.70;99.90
13589;DHT22;6865;52.552;13.434;2024-01-25T14:04:58;8.60;99.90
13589;DHT22;6865;52.552;13.434;2024-01-25T14:07:25;8.60;99.90
13589;DHT22;6865;52.552;13.434;2024-01-25T14:09:52;8.40;99.90
13589;DHT22;6865;52.552;13.434;2024-01-25T14:12:20;8.40;99.90
13589;DHT22;6865;52.552;13.434;2024-01-25T14:14:47;8.40;99.90
13589;DHT22;6865;52.552;13.434;2024-01-25T14:17:14;8.40;99.90
13589;DHT22;6865;52.552;13.434;2024-01-25T14:19:41;8.30;99.90
13589;DHT22;6865;52.552;13.434;2024-01-25T14:22:08;8.20;99.90
13589;DHT22;6865;52.552;13.434;2024-01-25T14:24:54;8.30;99.90
13589;DHT22;6865;52.552;13.434;2024-01-25T14:27:21;8.30;99.90
13589;DHT22;6865;52.552;13.434;2024-01-25T14:29:47;8.20;99.90
13589;DHT22;6865;52.552;13.434;2024-01-25T14:32:14;8.20;99.90
13589;DHT22;6865;52.552;13.434;2024-01-25T14:34:41;8.20;99.90
13589;DHT22;6865;52.552;13.434;2024-01-25T14:37:08;8.10;99.90
13589;DHT22;6865;52.552;13.434;2024-01-25T14:39:38;8.10;99.90
13589;DHT22;6865;52.552;13.434;2024-01-25T14:42:10;8.10;99.90
13589;DHT22;6865;52.552;13.434;2024-01-25T14:44:38;8.10;99.90
13589;DHT22;6865;52.552;13.434;2024-01-25T14:47:05;8.00;99.90
13589;DHT22;6865;52.552;13.434;2024-01-25T14:49:32;8.10;99.90
13589;DHT22;6865;52.552;13.434;2024-01-25T14:51:59;7.90;99.90
13589;DHT22;6865;52.552;13.434;2024-01-25T14:54:25;7.90;1.00
13589;DHT22;6865;52.552;13.434;2024-01-25T14:56:52;7.90;99.90
13589;DHT22;6865;52.552;13.434;2024-01-25T14:59:19;7.80;1.00
13589;DHT22;6865;52.552;13.434;2024-01-25T15:01:49;7.70;1.00
13589;DHT22;6865;52.552;13.434;2024-01-25T15:04:15;7.70;1.00
13589;DHT22;6865;52.552;13.434;2024-01-25T15:06:45;7.70;1.00
13589;DHT22;6865;52.552;13.434;2024-01-25T15:09:12;7.60;1.00
13589;DHT22;6865;52.552;13.434;2024-01-25T15:11:39;7.60;1.00
13589;DHT22;6865;52.552;13.434;2024-01-25T15:14:06;7.60;1.00
13589;DHT22;6865;52.552;13.434;2024-01-25T15:16:32;5.60;1.00
13589;DHT22;6865;52.552;13.434;2024-01-25T15:18:59;7.60;1.00
13589;DHT22;6865;52.552;13.434;2024-01-25T15:21:26;7.60;1.00
13589;DHT22;6865;52.552;13.434;2024-01-25T15:23:53;7.70;1.00
13589;DHT22;6865;52.552;13.434;2024-01-25T15:26:20;7.60;1.00
13589;DHT22;6865;52.552;13.434;2024-01-25T15:28:46;7.00;1.00
13589;DHT22;6865;52.552;13.434;2024-01-25T15:31:15;7.60;1.00
13589;DHT22;6865;52.552;13.434;2024-01-25T15:33:42;7.60;1.00
13589;DHT22;6865;52.552;13.434;2024-01-25T15:36:09;7.70;1.00
13589;DHT22;6865;52.552;13.434;2024-01-25T15:38:35;7.50;1.00
13589;DHT22;6865;52.552;13.434;2024-01-25T15:41:02;7.60;1.00
13589;DHT22;6865;52.552;13.434;2024-01-25T15:43:29;7.60;1.00
13589;DHT22;6865;52.552;13.434;2024-01-25T15:45:55;7.60;1.00
13589;DHT22;6865;52.552;13.434;2024-01-25T15:48:22;7.60;1.00
13589;DHT22;6865;52.552;13.434;2024-01-25T15:50:49;7.60;1.00
13589;DHT22;6865;52.552;13.434;2024-01-25T15:53:16;7.40;1.00
13589;DHT22;6865;52.552;13.434;2024-01-25T15:55:43;7.70;1.00
13589;DHT22;6865;52.552;13.434;2024-01-25T15:58:10;7.60;1.00
13589;DHT22;6865;52.552;13.434;2024-01-25T16:00:36;7.70;1.00